sensor_id;sensor_type;location;lat;lon;timestamp;P1;durP1;ratioP1;P2;durP2;ratioP2
35394;SDS011;21500;45.308;9.488;2022-10-16T00:06:30;111.32;;;74.32;;
35394;SDS011;21500;45.308;9.488;2022-10-16T00:09:18;107.95;;;73.53;;
35394;SDS011;21500;45.308;9.488;2022-10-16T00:12:42;102.40;;;70.70;;
35394;SDS011;21500;45.308;9.488;2022-10-16T00:15:36;107.93;;;75.43;;
35394;SDS011;21500;45.308;9.488;2022-10-16T00:22:07;106.25;;;72.50;;
35394;SDS011;21500;45.308;9.488;2022-10-16T00:26:02;107.82;;;70.65;;
35394;SDS011;21500;45.308;9.488;2022-10-16T00:29:32;107.47;;;74.30;;
35394;SDS011;21500;45.308;9.488;2022-10-16T00:32:25;108.85;;;73.25;;
35394;SDS011;21500;45.308;9.488;2022-10-16T00:35:57;103.00;;;68.57;;
35394;SDS011;21500;45.308;9.488;2022-10-16T00:39:27;116.70;;;73.00;;
35394;SDS011;21500;45.308;9.488;2022-10-16T00:42:37;111.03;;;74.20;;
35394;SDS011;21500;45.308;9.488;2022-10-16T00:45:54;104.65;;;69.55;;
35394;SDS011;21500;45.308;9.488;2022-10-16T00:52:12;111.88;;;71.97;;
35394;SDS011;21500;45.308;9.488;2022-10-16T00:55:44;106.60;;;71.97;;
35394;SDS011;21500;45.308;9.488;2022-10-16T00:59:15;107.18;;;72.10;;
35394;SDS011;21500;45.308;9.488;2022-10-16T01:09:06;106.13;;;72.07;;
35394;SDS011;21500;45.308;9.488;2022-10-16T01:12:23;107.90;;;73.40;;
35394;SDS011;21500;45.308;9.488;2022-10-16T01:16:07;104.13;;;70.65;;
35394;SDS011;21500;45.308;9.488;2022-10-16T01:35:36;107.00;;;73.38;;
35394;SDS011;21500;45.308;9.488;2022-10-16T01:38:46;107.85;;;73.07;;
35394;SDS011;21500;45.308;9.488;2022-10-16T01:41:29;99.30;;;69.35;;
35394;SDS011;21500;45.308;9.488;2022-10-16T01:44:25;94.38;;;69.35;;
35394;SDS011;21500;45.308;9.488;2022-10-16T01:47:03;105.18;;;72.18;;
35394;SDS011;21500;45.308;9.488;2022-10-16T01:53:32;104.70;;;70.55;;
35394;SDS011;21500;45.308;9.488;2022-10-16T01:56:32;97.38;;;67.45;;
35394;SDS011;21500;45.308;9.488;2022-10-16T02:00:01;98.15;;;69.47;;
35394;SDS011;21500;45.308;9.488;2022-10-16T02:02:47;100.10;;;68.78;;
35394;SDS011;21500;45.308;9.488;2022-10-16T02:06:07;96.50;;;67.72;;
35394;SDS011;21500;45.308;9.488;2022-10-16T02:08:56;101.97;;;69.20;;
35394;SDS011;21500;45.308;9.488;2022-10-16T02:11:50;97.63;;;67.15;;
35394;SDS011;21500;45.308;9.488;2022-10-16T02:14:57;105.13;;;68.55;;
35394;SDS011;21500;45.308;9.488;2022-10-16T02:18:53;97.55;;;65.13;;
35394;SDS011;21500;45.308;9.488;2022-10-16T02:37:57;89.05;;;64.00;;
35394;SDS011;21500;45.308;9.488;2022-10-16T02:40:56;83.97;;;60.65;;
35394;SDS011;21500;45.308;9.488;2022-10-16T02:44:07;84.73;;;62.03;;
35394;SDS011;21500;45.308;9.488;2022-10-16T02:47:24;81.95;;;58.20;;
35394;SDS011;21500;45.308;9.488;2022-10-16T02:50:02;89.57;;;61.05;;
35394;SDS011;21500;45.308;9.488;2022-10-16T02:52:45;88.68;;;60.63;;
35394;SDS011;21500;45.308;9.488;2022-10-16T02:55:33;86.97;;;60.70;;
35394;SDS011;21500;45.308;9.488;2022-10-16T02:58:35;83.13;;;57.78;;
35394;SDS011;21500;45.308;9.488;2022-10-16T03:01:24;81.22;;;59.67;;
35394;SDS011;21500;45.308;9.488;2022-10-16T03:04:52;82.93;;;57.55;;
35394;SDS011;21500;45.308;9.488;2022-10-16T03:07:48;81.57;;;58.08;;
35394;SDS011;21500;45.308;9.488;2022-10-16T03:11:05;78.82;;;54.67;;
35394;SDS011;21500;45.308;9.488;2022-10-16T03:14:30;84.85;;;59.53;;
35394;SDS011;21500;45.308;9.488;2022-10-16T03:17:04;83.18;;;59.60;;
35394;SDS011;21500;45.308;9.488;2022-10-16T03:19:51;80.60;;;58.35;;
35394;SDS011;21500;45.308;9.488;2022-10-16T03:22:24;83.07;;;59.40;;
35394;SDS011;21500;45.308;9.488;2022-10-16T03:24:51;79.40;;;57.58;;
35394;SDS011;21500;45.308;9.488;2022-10-16T03:30:00;80.93;;;57.28;;
35394;SDS011;21500;45.308;9.488;2022-10-16T03:32:33;80.40;;;57.53;;
35394;SDS011;21500;45.308;9.488;2022-10-16T03:35:27;85.68;;;56.70;;
35394;SDS011;21500;45.308;9.488;2022-10-16T03:38:22;81.35;;;57.63;;
35394;SDS011;21500;45.308;9.488;2022-10-16T03:41:02;84.90;;;59.40;;
35394;SDS011;21500;45.308;9.488;2022-10-16T03:43:54;76.75;;;55.55;;
35394;SDS011;21500;45.308;9.488;2022-10-16T03:46:30;80.32;;;58.45;;
35394;SDS011;21500;45.308;9.488;2022-10-16T03:49:36;82.78;;;58.10;;
35394;SDS011;21500;45.308;9.488;2022-10-16T03:52:26;81.90;;;57.53;;
35394;SDS011;21500;45.308;9.488;2022-10-16T03:57:35;86.50;;;58.00;;
35394;SDS011;21500;45.308;9.488;2022-10-16T04:00:17;87.10;;;59.78;;
35394;SDS011;21500;45.308;9.488;2022-10-16T04:02:58;82.05;;;58.47;;
35394;SDS011;21500;45.308;9.488;2022-10-16T04:05:31;80.53;;;57.33;;
35394;SDS011;21500;45.308;9.488;2022-10-16T04:08:06;77.38;;;58.92;;
35394;SDS011;21500;45.308;9.488;2022-10-16T04:11:04;82.45;;;56.20;;
35394;SDS011;21500;45.308;9.488;2022-10-16T04:13:42;80.68;;;58.65;;
35394;SDS011;21500;45.308;9.488;2022-10-16T04:16:42;81.30;;;57.67;;
35394;SDS011;21500;45.308;9.488;2022-10-16T04:19:42;84.07;;;61.42;;
35394;SDS011;21500;45.308;9.488;2022-10-16T04:22:53;77.40;;;56.47;;
35394;SDS011;21500;45.308;9.488;2022-10-16T04:28:51;76.63;;;55.50;;
35394;SDS011;21500;45.308;9.488;2022-10-16T04:31:54;76.03;;;56.05;;
35394;SDS011;21500;45.308;9.488;2022-10-16T04:37:59;78.10;;;55.38;;
35394;SDS011;21500;45.308;9.488;2022-10-16T04:44:38;74.10;;;53.20;;
35394;SDS011;21500;45.308;9.488;2022-10-16T04:47:25;80.38;;;56.03;;
35394;SDS011;21500;45.308;9.488;2022-10-16T04:50:16;78.70;;;55.63;;
35394;SDS011;21500;45.308;9.488;2022-10-16T04:53:16;78.43;;;53.92;;
35394;SDS011;21500;45.308;9.488;2022-10-16T04:56:06;79.93;;;56.85;;
35394;SDS011;21500;45.308;9.488;2022-10-16T04:59:09;80.05;;;56.75;;
35394;SDS011;21500;45.308;9.488;2022-10-16T05:09:46;79.15;;;55.78;;
35394;SDS011;21500;45.308;9.488;2022-10-16T05:12:15;83.15;;;55.35;;
35394;SDS011;21500;45.308;9.488;2022-10-16T05:14:41;77.40;;;56.38;;
35394;SDS011;21500;45.308;9.488;2022-10-16T05:17:07;81.22;;;57.47;;
35394;SDS011;21500;45.308;9.488;2022-10-16T05:19:36;75.35;;;54.05;;
35394;SDS011;21500;45.308;9.488;2022-10-16T05:22:08;72.47;;;53.28;;
35394;SDS011;21500;45.308;9.488;2022-10-16T05:24:41;76.25;;;56.20;;
35394;SDS011;21500;45.308;9.488;2022-10-16T05:27:10;73.35;;;52.42;;
35394;SDS011;21500;45.308;9.488;2022-10-16T05:29:47;80.88;;;55.97;;
35394;SDS011;21500;45.308;9.488;2022-10-16T05:32:17;78.07;;;54.90;;
35394;SDS011;21500;45.308;9.488;2022-10-16T05:34:48;71.40;;;51.17;;
35394;SDS011;21500;45.308;9.488;2022-10-16T07:04:29;78.47;;;55.30;;
35394;SDS011;21500;45.308;9.488;2022-10-16T07:07:00;76.87;;;52.97;;
35394;SDS011;21500;45.308;9.488;2022-10-16T07:09:59;81.00;;;58.25;;
35394;SDS011;21500;45.308;9.488;2022-10-16T07:12:46;82.38;;;57.63;;
35394;SDS011;21500;45.308;9.488;2022-10-16T07:15:26;78.95;;;60.00;;
35394;SDS011;21500;45.308;9.488;2022-10-16T07:50:39;79.15;;;55.03;;
35394;SDS011;21500;45.308;9.488;2022-10-16T07:53:05;79.07;;;58.78;;
35394;SDS011;21500;45.308;9.488;2022-10-16T07:55:31;75.72;;;56.72;;
35394;SDS011;21500;45.308;9.488;2022-10-16T07:57:57;81.35;;;56.22;;
35394;SDS011;21500;45.308;9.488;2022-10-16T08:00:22;70.68;;;53.08;;
35394;SDS011;21500;45.308;9.488;2022-10-16T08:02:54;91.07;;;56.22;;
35394;SDS011;21500;45.308;9.488;2022-10-16T09:29:05;65.07;;;46.47;;
35394;SDS011;21500;45.308;9.488;2022-10-16T09:31:31;59.33;;;44.33;;
35394;SDS011;21500;45.308;9.488;2022-10-16T09:34:02;55.22;;;44.50;;
35394;SDS011;21500;45.308;9.488;2022-10-16T09:36:35;55.95;;;44.90;;
35394;SDS011;21500;45.308;9.488;2022-10-16T09:39:08;63.08;;;44.13;;
35394;SDS011;21500;45.308;9.488;2022-10-16T09:41:41;61.97;;;46.38;;
35394;SDS011;21500;45.308;9.488;2022-10-16T09:44:21;59.53;;;43.75;;
35394;SDS011;21500;45.308;9.488;2022-10-16T09:49:36;62.03;;;44.90;;
35394;SDS011;21500;45.308;9.488;2022-10-16T09:52:09;53.25;;;40.92;;
35394;SDS011;21500;45.308;9.488;2022-10-16T09:54:37;62.05;;;45.58;;
35394;SDS011;21500;45.308;9.488;2022-10-16T09:57:24;59.20;;;43.70;;
35394;SDS011;21500;45.308;9.488;2022-10-16T10:00:25;58.05;;;43.92;;
35394;SDS011;21500;45.308;9.488;2022-10-16T10:03:08;69.55;;;46.95;;
35394;SDS011;21500;45.308;9.488;2022-10-16T10:05:52;56.78;;;42.45;;
35394;SDS011;21500;45.308;9.488;2022-10-16T10:08:27;58.63;;;44.35;;
35394;SDS011;21500;45.308;9.488;2022-10-16T10:11:47;58.50;;;44.20;;
35394;SDS011;21500;45.308;9.488;2022-10-16T10:17:45;61.40;;;44.60;;
35394;SDS011;21500;45.308;9.488;2022-10-16T10:20:38;57.97;;;42.33;;
35394;SDS011;21500;45.308;9.488;2022-10-16T10:23:25;59.28;;;45.22;;
35394;SDS011;21500;45.308;9.488;2022-10-16T10:25:54;60.42;;;43.58;;
35394;SDS011;21500;45.308;9.488;2022-10-16T11:08:45;57.83;;;46.08;;
35394;SDS011;21500;45.308;9.488;2022-10-16T11:11:42;56.97;;;43.97;;
35394;SDS011;21500;45.308;9.488;2022-10-16T11:14:23;61.10;;;46.03;;
35394;SDS011;21500;45.308;9.488;2022-10-16T11:17:39;59.38;;;45.65;;
35394;SDS011;21500;45.308;9.488;2022-10-16T11:20:34;54.67;;;42.95;;
35394;SDS011;21500;45.308;9.488;2022-10-16T11:23:30;59.38;;;45.03;;
35394;SDS011;21500;45.308;9.488;2022-10-16T11:26:23;53.45;;;41.63;;
35394;SDS011;21500;45.308;9.488;2022-10-16T11:29:00;55.72;;;42.72;;
35394;SDS011;21500;45.308;9.488;2022-10-16T11:34:22;56.22;;;43.70;;
35394;SDS011;21500;45.308;9.488;2022-10-16T11:37:03;51.25;;;41.15;;
35394;SDS011;21500;45.308;9.488;2022-10-16T11:39:38;54.75;;;41.25;;
35394;SDS011;21500;45.308;9.488;2022-10-16T11:42:16;49.65;;;40.08;;
35394;SDS011;21500;45.308;9.488;2022-10-16T11:48:35;48.25;;;38.55;;
35394;SDS011;21500;45.308;9.488;2022-10-16T11:51:22;50.77;;;38.40;;
35394;SDS011;21500;45.308;9.488;2022-10-16T11:54:14;47.25;;;37.78;;
35394;SDS011;21500;45.308;9.488;2022-10-16T11:56:42;51.28;;;39.55;;
35394;SDS011;21500;45.308;9.488;2022-10-16T11:59:36;49.13;;;39.55;;
35394;SDS011;21500;45.308;9.488;2022-10-16T12:10:45;51.30;;;39.83;;
35394;SDS011;21500;45.308;9.488;2022-10-16T12:14:03;47.92;;;37.80;;
35394;SDS011;21500;45.308;9.488;2022-10-16T12:16:06;51.20;;;40.25;;
35394;SDS011;21500;45.308;9.488;2022-10-16T12:19:15;47.72;;;36.97;;
35394;SDS011;21500;45.308;9.488;2022-10-16T12:21:42;48.42;;;38.78;;
35394;SDS011;21500;45.308;9.488;2022-10-16T12:24:20;54.83;;;40.92;;
35394;SDS011;21500;45.308;9.488;2022-10-16T12:26:58;53.20;;;39.30;;
35394;SDS011;21500;45.308;9.488;2022-10-16T12:32:23;50.60;;;38.47;;
35394;SDS011;21500;45.308;9.488;2022-10-16T12:34:51;47.55;;;38.45;;
35394;SDS011;21500;45.308;9.488;2022-10-16T12:37:22;46.72;;;36.15;;
35394;SDS011;21500;45.308;9.488;2022-10-16T12:39:52;47.53;;;38.10;;
35394;SDS011;21500;45.308;9.488;2022-10-16T12:44:48;49.28;;;38.72;;
35394;SDS011;21500;45.308;9.488;2022-10-16T12:47:19;48.92;;;37.25;;
35394;SDS011;21500;45.308;9.488;2022-10-16T12:50:00;55.58;;;41.05;;
35394;SDS011;21500;45.308;9.488;2022-10-16T12:52:48;49.40;;;38.70;;
35394;SDS011;21500;45.308;9.488;2022-10-16T12:55:18;54.70;;;40.40;;
35394;SDS011;21500;45.308;9.488;2022-10-16T13:06:08;54.17;;;39.15;;
35394;SDS011;21500;45.308;9.488;2022-10-16T13:13:59;53.28;;;39.40;;
35394;SDS011;21500;45.308;9.488;2022-10-16T13:30:15;47.60;;;35.90;;
35394;SDS011;21500;45.308;9.488;2022-10-16T13:33:34;44.22;;;34.80;;
35394;SDS011;21500;45.308;9.488;2022-10-16T13:35:49;43.00;;;33.67;;
35394;SDS011;21500;45.308;9.488;2022-10-16T13:38:30;45.67;;;35.05;;
35394;SDS011;21500;45.308;9.488;2022-10-16T13:41:04;47.22;;;36.95;;
35394;SDS011;21500;45.308;9.488;2022-10-16T13:43:45;47.75;;;38.05;;
35394;SDS011;21500;45.308;9.488;2022-10-16T13:46:18;47.22;;;36.00;;
35394;SDS011;21500;45.308;9.488;2022-10-16T13:48:59;46.53;;;35.17;;
35394;SDS011;21500;45.308;9.488;2022-10-16T13:51:27;42.70;;;34.15;;
35394;SDS011;21500;45.308;9.488;2022-10-16T13:53:56;43.08;;;34.88;;
35394;SDS011;21500;45.308;9.488;2022-10-16T13:56:25;46.65;;;34.50;;
35394;SDS011;21500;45.308;9.488;2022-10-16T14:02:00;45.55;;;35.83;;
35394;SDS011;21500;45.308;9.488;2022-10-16T14:04:21;51.15;;;40.13;;
35394;SDS011;21500;45.308;9.488;2022-10-16T14:06:49;56.83;;;39.47;;
35394;SDS011;21500;45.308;9.488;2022-10-16T14:12:08;43.72;;;36.08;;
35394;SDS011;21500;45.308;9.488;2022-10-16T14:14:41;54.10;;;38.05;;
35394;SDS011;21500;45.308;9.488;2022-10-16T14:17:31;53.97;;;38.45;;
35394;SDS011;21500;45.308;9.488;2022-10-16T14:20:01;54.20;;;39.53;;
35394;SDS011;21500;45.308;9.488;2022-10-16T14:22:34;53.83;;;41.80;;
35394;SDS011;21500;45.308;9.488;2022-10-16T14:27:59;50.97;;;39.22;;
35394;SDS011;21500;45.308;9.488;2022-10-16T14:30:33;48.75;;;37.33;;
35394;SDS011;21500;45.308;9.488;2022-10-16T14:33:01;45.75;;;35.05;;
35394;SDS011;21500;45.308;9.488;2022-10-16T14:35:44;45.88;;;34.60;;
35394;SDS011;21500;45.308;9.488;2022-10-16T14:38:17;50.78;;;36.53;;
35394;SDS011;21500;45.308;9.488;2022-10-16T14:40:46;47.08;;;36.05;;
35394;SDS011;21500;45.308;9.488;2022-10-16T14:43:14;52.15;;;37.85;;
35394;SDS011;21500;45.308;9.488;2022-10-16T14:46:14;48.67;;;34.88;;
35394;SDS011;21500;45.308;9.488;2022-10-16T14:48:42;46.78;;;37.25;;
35394;SDS011;21500;45.308;9.488;2022-10-16T14:51:19;47.30;;;35.92;;
35394;SDS011;21500;45.308;9.488;2022-10-16T14:53:49;46.85;;;37.47;;
35394;SDS011;21500;45.308;9.488;2022-10-16T14:56:19;50.88;;;37.13;;
35394;SDS011;21500;45.308;9.488;2022-10-16T15:22:58;59.40;;;39.05;;
35394;SDS011;21500;45.308;9.488;2022-10-16T15:28:48;51.70;;;36.60;;
35394;SDS011;21500;45.308;9.488;2022-10-16T18:56:46;51.15;;;37.83;;
35394;SDS011;21500;45.308;9.488;2022-10-16T18:59:13;56.90;;;38.50;;
35394;SDS011;21500;45.308;9.488;2022-10-16T19:01:47;48.90;;;37.13;;
35394;SDS011;21500;45.308;9.488;2022-10-16T19:04:15;51.47;;;37.17;;
35394;SDS011;21500;45.308;9.488;2022-10-16T19:06:48;59.55;;;40.03;;
35394;SDS011;21500;45.308;9.488;2022-10-16T19:09:16;53.50;;;38.38;;
35394;SDS011;21500;45.308;9.488;2022-10-16T19:11:44;54.10;;;39.13;;
35394;SDS011;21500;45.308;9.488;2022-10-16T19:14:12;57.92;;;41.00;;
35394;SDS011;21500;45.308;9.488;2022-10-16T19:16:46;53.15;;;39.20;;
35394;SDS011;21500;45.308;9.488;2022-10-16T19:19:17;54.25;;;36.78;;
35394;SDS011;21500;45.308;9.488;2022-10-16T19:21:49;49.95;;;37.15;;
